createdAt,value
2023-04-28T00:02:24.738Z,12.48
2023-04-28T00:04:52.110Z,11.40
2023-04-28T00:07:18.986Z,11.25
2023-04-28T00:09:45.460Z,14.05
2023-04-28T00:12:12.250Z,12.70
2023-04-28T00:14:38.701Z,12.60
2023-04-28T00:17:05.191Z,14.57
2023-04-28T00:19:31.674Z,13.45
2023-04-28T00:21:58.210Z,14.38
2023-04-28T00:24:24.636Z,14.63
2023-04-28T00:26:51.246Z,16.48
2023-04-28T00:29:17.726Z,15.35
2023-04-28T00:31:45.077Z,14.02
2023-04-28T00:34:14.484Z,16.00
2023-04-28T00:36:41.262Z,14.93
2023-04-28T00:39:27.673Z,14.18
2023-04-28T00:41:54.725Z,12.60
2023-04-28T00:44:21.458Z,15.45
2023-04-28T00:46:48.151Z,13.82
2023-04-28T00:49:15.514Z,16.33
2023-04-28T00:51:42.016Z,18.15
2023-04-28T00:54:08.813Z,17.80
2023-04-28T00:56:36.082Z,15.55
2023-04-28T00:59:03.335Z,16.38
2023-04-28T01:01:29.861Z,16.15
2023-04-28T01:03:56.635Z,16.25
2023-04-28T01:06:41.901Z,15.27
2023-04-28T01:09:08.441Z,16.40
2023-04-28T01:11:36.965Z,17.35
2023-04-28T01:14:29.900Z,19.60
2023-04-28T01:16:56.564Z,17.08
2023-04-28T01:19:23.464Z,22.83
2023-04-28T01:21:51.374Z,20.75
2023-04-28T01:24:21.802Z,27.77
2023-04-28T01:26:48.295Z,28.33
2023-04-28T01:29:15.055Z,21.77
2023-04-28T01:31:42.055Z,24.60
2023-04-28T01:34:08.627Z,20.42
2023-04-28T01:36:37.777Z,24.08
2023-04-28T01:39:23.296Z,19.98
2023-04-28T01:41:49.718Z,27.70
2023-04-28T01:44:16.420Z,29.10
2023-04-28T01:46:42.956Z,28.73
2023-04-28T01:49:09.445Z,30.85
2023-04-28T01:51:35.865Z,27.30
2023-04-28T01:54:02.295Z,35.50
2023-04-28T01:56:29.604Z,25.90
2023-04-28T01:58:57.402Z,26.83
2023-04-28T02:01:23.943Z,23.27
2023-04-28T02:03:50.932Z,38.78
2023-04-28T02:06:17.758Z,36.78
2023-04-28T02:08:44.187Z,32.72
2023-04-28T02:11:12.451Z,26.23
2023-04-28T02:13:38.875Z,30.60
2023-04-28T02:16:05.673Z,35.38
2023-04-28T02:18:32.179Z,40.05
2023-04-28T02:21:08.094Z,28.95
2023-04-28T02:23:34.601Z,30.33
2023-04-28T02:26:01.574Z,28.50
2023-04-28T02:28:28.236Z,30.85
2023-04-28T02:31:03.769Z,34.67
2023-04-28T02:33:30.201Z,23.80
2023-04-28T02:36:00.579Z,29.10
2023-04-28T02:38:27.624Z,29.05
2023-04-28T02:40:58.889Z,32.80
2023-04-28T02:43:25.547Z,28.83
2023-04-28T02:45:52.251Z,31.08
2023-04-28T02:48:18.729Z,33.00
2023-04-28T02:50:48.268Z,30.77
2023-04-28T02:53:14.755Z,26.10
2023-04-28T02:55:41.211Z,28.92
2023-04-28T02:58:07.745Z,27.42
2023-04-28T03:00:34.193Z,28.95
2023-04-28T03:03:00.914Z,37.88
2023-04-28T03:05:27.590Z,24.38
2023-04-28T03:07:54.026Z,21.35
2023-04-28T03:10:20.580Z,24.65
2023-04-28T03:12:46.995Z,29.98
2023-04-28T03:15:14.154Z,23.80
2023-04-28T03:17:42.282Z,28.88
2023-04-28T03:20:09.396Z,35.78
2023-04-28T03:22:36.292Z,28.23
2023-04-28T03:25:03.387Z,28.65
2023-04-28T03:27:33.539Z,28.83
2023-04-28T03:30:01.865Z,31.38
2023-04-28T03:32:28.696Z,34.25
2023-04-28T03:34:55.395Z,27.13
2023-04-28T03:37:22.032Z,36.53
2023-04-28T03:39:49.695Z,28.83
2023-04-28T03:42:16.223Z,30.70
2023-04-28T03:45:01.217Z,28.55
2023-04-28T03:47:28.500Z,29.92
2023-04-28T03:49:55.055Z,34.10
2023-04-28T03:52:21.465Z,31.63
2023-04-28T03:54:49.000Z,25.85
2023-04-28T03:57:15.540Z,24.80
2023-04-28T03:59:41.985Z,28.52
2023-04-28T04:02:10.109Z,26.05
2023-04-28T04:04:36.947Z,24.70
2023-04-28T04:07:04.132Z,30.25
2023-04-28T04:09:30.969Z,30.73
2023-04-28T04:11:57.438Z,31.10
2023-04-28T04:14:23.986Z,31.38
2023-04-28T04:16:50.653Z,26.98
2023-04-28T04:19:17.161Z,29.33
2023-04-28T04:21:44.532Z,25.92
2023-04-28T04:24:11.210Z,24.95
2023-04-28T04:26:38.098Z,28.67
2023-04-28T04:29:18.921Z,27.63
2023-04-28T04:31:45.488Z,26.90
2023-04-28T04:34:12.186Z,23.40
2023-04-28T04:36:38.615Z,24.10
2023-04-28T04:39:05.969Z,21.00
2023-04-28T04:41:32.436Z,21.75
2023-04-28T04:44:15.959Z,25.15
2023-04-28T04:46:46.265Z,31.52
2023-04-28T04:49:13.321Z,24.27
2023-04-28T04:51:58.393Z,26.30
2023-04-28T04:54:24.959Z,26.63
2023-04-28T04:56:52.449Z,23.90
2023-04-28T04:59:29.362Z,25.38
2023-04-28T05:02:03.387Z,25.65
2023-04-28T05:04:29.887Z,26.08
2023-04-28T05:06:56.608Z,30.52
2023-04-28T05:09:23.350Z,31.40
2023-04-28T05:11:49.963Z,28.48
2023-04-28T05:14:17.354Z,24.77
2023-04-28T05:16:44.384Z,23.40
2023-04-28T05:19:15.510Z,24.60
2023-04-28T05:21:42.121Z,24.85
2023-04-28T05:24:08.659Z,28.33
2023-04-28T05:26:36.035Z,26.00
2023-04-28T05:29:06.841Z,26.42
2023-04-28T05:31:33.353Z,23.98
2023-04-28T05:33:59.884Z,24.65
2023-04-28T05:36:26.905Z,27.40
2023-04-28T05:38:53.386Z,23.77
2023-04-28T05:41:20.035Z,24.25
2023-04-28T05:43:47.673Z,19.10
2023-04-28T05:46:28.296Z,21.45
2023-04-28T05:48:57.072Z,19.50
2023-04-28T05:51:23.571Z,22.48
2023-04-28T05:53:51.073Z,28.20
2023-04-28T05:56:17.672Z,24.15
2023-04-28T05:58:50.793Z,25.15
2023-04-28T06:01:17.576Z,20.75
2023-04-28T06:03:45.196Z,23.67
2023-04-28T06:06:12.228Z,16.80
2023-04-28T06:08:38.811Z,17.90
2023-04-28T06:11:05.481Z,18.45
2023-04-28T06:13:31.979Z,18.27
2023-04-28T06:15:58.489Z,16.90
2023-04-28T06:18:25.106Z,17.13
2023-04-28T06:20:51.625Z,19.30
2023-04-28T06:23:18.074Z,15.10
2023-04-28T06:25:46.665Z,16.00
2023-04-28T06:28:14.868Z,16.65
2023-04-28T06:30:41.595Z,14.77
2023-04-28T06:33:08.206Z,14.90
2023-04-28T06:35:36.476Z,13.32
2023-04-28T06:38:04.854Z,12.98
2023-04-28T06:40:32.526Z,12.35
2023-04-28T06:43:01.314Z,12.63
2023-04-28T06:45:35.697Z,13.38
2023-04-28T06:48:02.344Z,12.27
2023-04-28T06:50:29.061Z,13.13
2023-04-28T06:52:55.579Z,12.27
2023-04-28T06:55:22.160Z,13.13
2023-04-28T06:57:49.801Z,14.10
2023-04-28T07:00:17.045Z,12.80
2023-04-28T07:02:43.657Z,12.75
2023-04-28T07:05:10.320Z,10.93
2023-04-28T07:07:39.077Z,12.30
2023-04-28T07:10:06.491Z,12.13
2023-04-28T07:12:32.953Z,12.80
2023-04-28T07:14:59.465Z,11.25
2023-04-28T07:17:25.941Z,11.50
2023-04-28T07:19:52.495Z,11.30
2023-04-28T07:22:18.971Z,12.98
2023-04-28T07:24:45.586Z,11.45
2023-04-28T07:27:12.747Z,11.82
2023-04-28T07:29:39.208Z,12.57
2023-04-28T07:32:08.187Z,10.88
2023-04-28T07:34:35.684Z,12.02
2023-04-28T07:37:02.895Z,12.90
2023-04-28T07:39:31.037Z,11.95
2023-04-28T07:41:58.961Z,13.40
2023-04-28T07:44:25.612Z,11.60
2023-04-28T07:46:53.180Z,13.63
2023-04-28T07:49:19.675Z,12.50
2023-04-28T07:51:46.340Z,12.75
2023-04-28T07:54:12.907Z,11.73
2023-04-28T07:56:39.462Z,14.10
2023-04-28T07:59:06.474Z,12.90
2023-04-28T08:01:32.911Z,12.65
2023-04-28T08:03:59.748Z,10.73
2023-04-28T08:06:26.469Z,10.98
2023-04-28T08:08:53.007Z,10.57
2023-04-28T08:11:19.505Z,11.35
2023-04-28T08:13:47.052Z,10.45
2023-04-28T08:16:13.594Z,10.90
2023-04-28T08:18:40.753Z,11.60
2023-04-28T08:21:07.259Z,11.63
2023-04-28T08:23:33.734Z,11.68
2023-04-28T08:26:00.515Z,10.45
2023-04-28T08:28:27.334Z,11.25
2023-04-28T08:30:55.481Z,10.82
2023-04-28T08:33:23.373Z,11.40
2023-04-28T08:35:50.509Z,12.23
2023-04-28T08:38:18.333Z,11.20
2023-04-28T08:40:44.895Z,10.88
2023-04-28T08:43:11.576Z,10.75
2023-04-28T08:45:40.993Z,10.88
2023-04-28T08:48:11.311Z,11.20
2023-04-28T08:50:39.544Z,11.25
2023-04-28T08:53:07.241Z,11.05
2023-04-28T08:55:35.036Z,10.90
2023-04-28T08:58:02.640Z,11.70
2023-04-28T09:00:29.079Z,11.40
2023-04-28T09:02:55.670Z,11.60
2023-04-28T09:05:22.401Z,11.82
2023-04-28T09:07:51.954Z,12.57
2023-04-28T09:10:22.635Z,11.90
2023-04-28T09:12:51.432Z,11.57
2023-04-28T09:15:31.821Z,12.20
2023-04-28T09:18:00.263Z,12.38
2023-04-28T09:20:27.631Z,11.35
2023-04-28T09:22:55.168Z,12.52
2023-04-28T09:25:22.850Z,12.10
2023-04-28T09:27:50.094Z,12.50
2023-04-28T09:30:16.846Z,12.18
2023-04-28T09:32:43.746Z,11.95
2023-04-28T09:35:10.270Z,12.30
2023-04-28T09:37:37.760Z,12.13
2023-04-28T09:40:08.819Z,12.45
2023-04-28T09:42:42.439Z,12.45
2023-04-28T09:45:13.582Z,12.20
2023-04-28T09:47:41.700Z,12.63
2023-04-28T09:50:11.054Z,12.02
2023-04-28T09:52:37.662Z,12.38
2023-04-28T09:55:05.518Z,12.05
2023-04-28T09:57:32.745Z,12.75
2023-04-28T09:59:59.486Z,12.45
2023-04-28T10:05:03.549Z,14.02
2023-04-28T10:07:34.969Z,14.18
2023-04-28T10:10:02.026Z,13.48
2023-04-28T10:12:28.548Z,14.18
2023-04-28T10:14:55.126Z,15.15
2023-04-28T10:17:22.295Z,17.23
2023-04-28T10:19:53.221Z,18.40
2023-04-28T10:22:32.560Z,17.45
2023-04-28T10:25:02.099Z,18.65
2023-04-28T10:27:31.876Z,20.83
2023-04-28T10:32:47.819Z,20.40
2023-04-28T10:35:32.720Z,21.50
2023-04-28T10:38:03.699Z,23.52
2023-04-28T10:40:36.820Z,24.70
2023-04-28T10:43:03.602Z,21.73
2023-04-28T10:45:49.275Z,21.77
2023-04-28T10:48:16.452Z,23.55
2023-04-28T10:51:15.522Z,23.40
2023-04-28T10:53:45.250Z,23.48
2023-04-28T10:56:19.536Z,23.27
2023-04-28T10:58:46.793Z,22.15
2023-04-28T11:01:24.181Z,22.38
2023-04-28T11:03:54.258Z,23.98
2023-04-28T11:06:26.643Z,25.85
2023-04-28T11:08:53.904Z,25.67
2023-04-28T11:11:21.441Z,26.33
2023-04-28T11:13:48.905Z,23.25
2023-04-28T11:16:17.416Z,25.23
2023-04-28T11:18:56.217Z,26.02
2023-04-28T11:21:23.360Z,26.70
2023-04-28T11:23:50.267Z,22.98
2023-04-28T11:26:18.459Z,23.80
2023-04-28T11:28:52.430Z,24.45
2023-04-28T11:31:20.744Z,20.17
2023-04-28T11:33:49.289Z,21.33
2023-04-28T11:36:22.635Z,23.83
2023-04-28T11:38:49.484Z,19.02
2023-04-28T11:41:16.128Z,18.08
2023-04-28T11:43:47.364Z,16.60
2023-04-28T11:46:18.896Z,17.10
2023-04-28T11:48:45.746Z,14.80
2023-04-28T11:51:32.562Z,13.90
2023-04-28T11:53:59.613Z,12.85
2023-04-28T11:56:26.644Z,13.13
2023-04-28T11:59:04.210Z,12.30
2023-04-28T12:01:31.390Z,9.35
2023-04-28T12:03:57.979Z,8.55
2023-04-28T12:06:24.597Z,8.80
2023-04-28T12:08:52.582Z,8.90
2023-04-28T12:11:22.482Z,8.57
2023-04-28T12:14:15.847Z,8.27
2023-04-28T12:16:44.251Z,8.77
2023-04-28T12:19:11.523Z,8.30
2023-04-28T12:21:39.279Z,8.15
2023-04-28T12:24:19.228Z,8.00
2023-04-28T12:26:45.836Z,7.35
2023-04-28T12:29:31.535Z,6.53
2023-04-28T12:31:58.580Z,6.15
2023-04-28T12:34:25.159Z,6.47
2023-04-28T12:36:51.623Z,6.35
2023-04-28T12:39:19.996Z,5.47
2023-04-28T12:41:46.773Z,5.93
2023-04-28T12:44:13.378Z,6.15
2023-04-28T12:46:40.005Z,5.72
2023-04-28T12:49:06.692Z,5.40
2023-04-28T12:51:36.628Z,4.85
2023-04-28T12:54:05.132Z,5.03
2023-04-28T12:56:31.810Z,5.32
2023-04-28T12:58:58.359Z,5.22
2023-04-28T13:01:25.103Z,4.35
2023-04-28T13:03:53.424Z,5.00
2023-04-28T13:06:20.504Z,5.00
2023-04-28T13:08:46.929Z,5.88
2023-04-28T13:13:46.063Z,5.38
2023-04-28T13:16:14.392Z,4.95
2023-04-28T13:18:40.843Z,4.97
2023-04-28T13:21:07.365Z,4.90
2023-04-28T13:23:33.904Z,4.68
2023-04-28T13:26:00.718Z,4.78
2023-04-28T13:28:28.568Z,3.55
2023-04-28T13:30:55.031Z,4.07
2023-04-28T13:33:21.491Z,5.18
2023-04-28T13:35:48.023Z,3.97
2023-04-28T13:38:14.591Z,3.67
2023-04-28T13:40:42.562Z,3.92
2023-04-28T13:43:08.985Z,3.50
2023-04-28T13:45:35.535Z,3.63
2023-04-28T13:48:03.359Z,4.00
2023-04-28T13:50:29.875Z,3.90
2023-04-28T13:52:56.380Z,4.10
2023-04-28T13:55:28.321Z,3.95
2023-04-28T13:57:55.231Z,3.70
2023-04-28T14:00:22.338Z,3.88
2023-04-28T14:02:50.782Z,3.72
2023-04-28T14:05:17.581Z,4.07
2023-04-28T14:07:44.386Z,3.90
2023-04-28T14:10:11.428Z,4.00
2023-04-28T14:12:38.372Z,4.55
2023-04-28T14:15:05.778Z,11.30
2023-04-28T14:17:34.591Z,5.25
2023-04-28T14:20:01.841Z,1.80
2023-04-28T14:22:28.707Z,2.00
2023-04-28T14:24:55.746Z,2.35
2023-04-28T14:27:22.293Z,2.10
2023-04-28T14:29:49.153Z,1.77
2023-04-28T14:32:16.562Z,1.65
2023-04-28T14:34:43.153Z,2.15
2023-04-28T14:37:09.711Z,1.33
2023-04-28T14:39:37.488Z,1.95
2023-04-28T14:42:04.101Z,1.60
2023-04-28T14:44:30.643Z,1.33
2023-04-28T14:46:57.243Z,1.40
2023-04-28T14:49:23.784Z,1.35
2023-04-28T14:51:50.431Z,1.40
2023-04-28T14:54:17.225Z,1.33
2023-04-28T14:56:44.641Z,1.15
2023-04-28T14:59:11.594Z,1.20
2023-04-28T15:01:38.211Z,1.02
2023-04-28T15:04:05.233Z,0.93
2023-04-28T15:06:32.857Z,1.08
2023-04-28T15:08:59.419Z,0.82
2023-04-28T15:11:26.096Z,0.95
2023-04-28T15:13:52.565Z,0.70
2023-04-28T15:16:19.407Z,1.08
2023-04-28T15:18:46.188Z,1.10
2023-04-28T15:21:12.639Z,1.20
2023-04-28T15:23:39.436Z,1.10
2023-04-28T15:26:06.652Z,0.98
2023-04-28T15:28:33.437Z,1.20
2023-04-28T15:30:59.982Z,1.20
2023-04-28T15:33:26.883Z,1.20
2023-04-28T15:35:53.502Z,1.40
2023-04-28T15:38:20.051Z,1.42
2023-04-28T15:40:46.514Z,2.00
2023-04-28T15:43:13.381Z,2.50
2023-04-28T15:45:41.245Z,2.83
2023-04-28T15:48:09.133Z,2.45
2023-04-28T15:50:36.306Z,2.67
2023-04-28T15:53:10.320Z,2.38
2023-04-28T15:55:37.781Z,1.83
2023-04-28T15:58:04.342Z,1.92
2023-04-28T16:00:30.914Z,1.80
2023-04-28T16:02:57.520Z,2.00
2023-04-28T16:05:24.065Z,1.13
2023-04-28T16:07:52.590Z,1.40
2023-04-28T16:10:19.124Z,1.17
2023-04-28T16:12:45.905Z,0.90
2023-04-28T16:15:13.049Z,1.08
2023-04-28T16:17:40.275Z,1.33
2023-04-28T16:20:07.686Z,1.40
2023-04-28T16:22:34.908Z,1.40
2023-04-28T16:25:03.799Z,1.40
2023-04-28T16:27:30.980Z,1.73
2023-04-28T16:29:57.849Z,2.55
2023-04-28T16:32:24.520Z,2.60
2023-04-28T16:34:51.690Z,2.92
2023-04-28T16:37:18.389Z,3.25
2023-04-28T16:39:45.345Z,3.72
2023-04-28T16:42:11.806Z,4.03
2023-04-28T16:44:38.263Z,3.58
2023-04-28T16:47:05.397Z,3.58
2023-04-28T16:49:31.883Z,3.88
2023-04-28T16:52:01.606Z,3.63
2023-04-28T16:54:28.731Z,3.80
2023-04-28T16:56:55.691Z,3.90
2023-04-28T16:59:22.374Z,4.40
2023-04-28T17:01:48.905Z,3.80
2023-04-28T17:04:15.713Z,4.30
2023-04-28T17:06:42.326Z,4.50
2023-04-28T17:09:09.808Z,4.57
2023-04-28T17:11:39.371Z,4.05
2023-04-28T17:14:06.854Z,4.22
2023-04-28T17:16:33.706Z,4.28
2023-04-28T17:19:01.308Z,4.07
2023-04-28T17:21:31.416Z,3.63
2023-04-28T17:23:58.581Z,3.50
2023-04-28T17:26:25.666Z,3.85
2023-04-28T17:28:52.893Z,3.40
2023-04-28T17:31:19.496Z,2.83
2023-04-28T17:33:46.430Z,3.13
2023-04-28T17:36:12.995Z,3.13
2023-04-28T17:38:39.583Z,3.50
2023-04-28T17:41:06.365Z,3.38
2023-04-28T17:43:33.795Z,3.22
2023-04-28T17:46:00.497Z,3.08
2023-04-28T17:48:27.036Z,3.83
2023-04-28T17:50:54.317Z,3.83
2023-04-28T17:53:21.509Z,3.40
2023-04-28T17:55:48.904Z,3.53
2023-04-28T17:58:15.983Z,3.70
2023-04-28T18:00:42.498Z,3.65
2023-04-28T18:03:09.019Z,4.43
2023-04-28T18:05:36.321Z,3.70
2023-04-28T18:08:05.888Z,3.88
2023-04-28T18:10:32.324Z,3.83
2023-04-28T18:12:59.247Z,4.20
2023-04-28T18:15:26.106Z,4.70
2023-04-28T18:17:52.830Z,5.40
2023-04-28T18:20:19.548Z,5.93
2023-04-28T18:22:46.941Z,5.80
2023-04-28T18:25:16.783Z,6.25
2023-04-28T18:27:43.369Z,6.00
2023-04-28T18:30:10.180Z,6.38
2023-04-28T18:32:39.054Z,5.93
2023-04-28T18:35:05.623Z,6.22
2023-04-28T18:37:32.453Z,6.55
2023-04-28T18:39:59.226Z,6.30
2023-04-28T18:42:27.337Z,5.90
2023-04-28T18:44:57.928Z,7.32
2023-04-28T18:47:25.467Z,6.70
2023-04-28T18:49:52.366Z,6.90
2023-04-28T18:52:18.806Z,6.68
2023-04-28T18:54:45.552Z,6.13
2023-04-28T18:57:12.788Z,6.35
2023-04-28T18:59:39.459Z,6.68
2023-04-28T19:02:06.522Z,7.30
2023-04-28T19:04:33.350Z,6.90
2023-04-28T19:07:00.019Z,6.65
2023-04-28T19:09:26.457Z,7.15
2023-04-28T19:11:53.655Z,6.43
2023-04-28T19:14:20.586Z,7.32
2023-04-28T19:16:47.076Z,7.20
2023-04-28T19:19:13.584Z,7.38
2023-04-28T19:21:44.375Z,7.53
2023-04-28T19:24:12.705Z,7.72
2023-04-28T19:26:39.333Z,7.60
2023-04-28T19:29:05.996Z,7.90
2023-04-28T19:31:32.683Z,7.43
2023-04-28T19:33:59.166Z,7.32
2023-04-28T19:36:26.628Z,7.22
2023-04-28T19:38:53.153Z,7.25
2023-04-28T19:41:20.808Z,7.10
2023-04-28T19:43:47.581Z,6.30
2023-04-28T19:46:15.122Z,6.30
2023-04-28T19:48:41.736Z,6.18
2023-04-28T19:51:08.324Z,6.65
2023-04-28T19:53:38.856Z,6.53
2023-04-28T19:56:05.641Z,6.03
2023-04-28T19:58:33.491Z,6.40
2023-04-28T20:00:59.912Z,6.88
2023-04-28T20:03:26.772Z,6.13
2023-04-28T20:05:53.361Z,6.35
2023-04-28T20:08:20.104Z,5.30
2023-04-28T20:10:46.924Z,5.97
2023-04-28T20:13:15.025Z,5.80
2023-04-28T20:15:41.802Z,6.10
2023-04-28T20:18:08.318Z,5.95
2023-04-28T20:20:34.849Z,5.63
2023-04-28T20:23:01.374Z,5.70
2023-04-28T20:25:28.045Z,5.88
2023-04-28T20:27:54.512Z,5.57
2023-04-28T20:30:20.975Z,5.50
2023-04-28T20:32:48.619Z,5.60
2023-04-28T20:35:15.149Z,5.45
2023-04-28T20:37:41.729Z,5.60
2023-04-28T20:40:10.146Z,6.10
2023-04-28T20:42:36.620Z,6.85
2023-04-28T20:45:04.484Z,6.82
2023-04-28T20:47:32.093Z,8.15
2023-04-28T20:49:58.605Z,7.65
2023-04-28T20:52:25.098Z,8.40
2023-04-28T20:54:53.946Z,8.82
2023-04-28T20:57:21.488Z,8.02
2023-04-28T20:59:47.990Z,7.78
2023-04-28T21:02:14.503Z,8.07
2023-04-28T21:04:41.102Z,7.45
2023-04-28T21:07:07.565Z,7.13
2023-04-28T21:09:35.830Z,7.25
2023-04-28T21:12:02.837Z,6.85
2023-04-28T21:14:29.369Z,6.35
2023-04-28T21:16:56.262Z,6.70
2023-04-28T21:19:22.851Z,6.72
2023-04-28T21:21:49.279Z,6.90
2023-04-28T21:24:15.958Z,6.68
2023-04-28T21:26:42.654Z,7.32
2023-04-28T21:29:09.697Z,6.88
2023-04-28T21:31:36.486Z,6.55
2023-04-28T21:34:03.035Z,5.65
2023-04-28T21:36:29.980Z,6.13
2023-04-28T21:38:56.817Z,6.15
2023-04-28T21:41:25.082Z,5.28
2023-04-28T21:43:51.914Z,6.03
2023-04-28T21:46:21.398Z,6.40
2023-04-28T21:48:47.941Z,6.30
2023-04-28T21:51:14.573Z,6.70
2023-04-28T21:53:41.073Z,7.15
2023-04-28T21:56:07.645Z,7.30
2023-04-28T21:58:35.831Z,7.50
2023-04-28T22:01:03.149Z,7.90
2023-04-28T22:03:30.562Z,8.60
2023-04-28T22:05:57.249Z,9.00
2023-04-28T22:08:23.679Z,9.30
2023-04-28T22:10:50.163Z,8.68
2023-04-28T22:13:16.707Z,9.38
2023-04-28T22:15:43.429Z,9.25
2023-04-28T22:18:10.124Z,9.13
2023-04-28T22:20:36.723Z,9.82
2023-04-28T22:23:03.598Z,10.32
2023-04-28T22:25:30.055Z,9.93
2023-04-28T22:27:56.623Z,10.05
2023-04-28T22:30:25.820Z,9.98
2023-04-28T22:32:52.750Z,10.55
2023-04-28T22:35:19.581Z,11.00
2023-04-28T22:37:46.078Z,10.52
2023-04-28T22:40:13.030Z,10.43
2023-04-28T22:42:40.029Z,10.55
2023-04-28T22:45:06.835Z,11.38
2023-04-28T22:47:33.868Z,12.13
2023-04-28T22:50:00.357Z,11.00
2023-04-28T22:52:26.854Z,10.63
2023-04-28T22:54:53.580Z,11.43
2023-04-28T22:57:20.108Z,11.07
2023-04-28T22:59:46.555Z,10.15
2023-04-28T23:02:13.676Z,9.90
2023-04-28T23:04:40.792Z,10.50
2023-04-28T23:07:07.712Z,9.98
2023-04-28T23:09:36.151Z,9.35
2023-04-28T23:12:03.511Z,9.90
2023-04-28T23:14:30.614Z,9.52
2023-04-28T23:16:57.303Z,9.70
2023-04-28T23:19:23.822Z,9.60
2023-04-28T23:21:50.633Z,9.52
2023-04-28T23:24:17.319Z,9.73
2023-04-28T23:26:43.908Z,9.75
2023-04-28T23:29:10.477Z,9.55
2023-04-28T23:31:40.081Z,9.15
2023-04-28T23:34:06.744Z,10.20
2023-04-28T23:36:33.209Z,10.05
2023-04-28T23:38:59.673Z,9.82
2023-04-28T23:41:27.077Z,10.52
2023-04-28T23:43:53.579Z,11.00
2023-04-28T23:46:20.327Z,9.70
2023-04-28T23:48:46.956Z,10.70
2023-04-28T23:51:13.508Z,10.10
2023-04-28T23:53:39.958Z,10.45
2023-04-28T23:56:06.508Z,9.93
2023-04-28T23:58:32.931Z,11.27
